Aviation Digital Data Service (ADDS)

Output produced by METARs form (1816 UTC 27 November 2014)
found at http://aviationweather.gov/adds/metars/
 
KRWI 271737Z 2718/2818 33010KT P6SM BKN015 BKN060 
     TEMPO 2718/2722 SCT015 BKN060 
     FM272200 32010G16KT P6SM BKN050 
     FM280100 32007KT P6SM SKC